Mezhdurechenskiy, Russia
Current Conditions -  °F | °C
As of 9:00 AM on Thursday 18 Dec 2014 (Local Time) from USHH Reporting Station
Overcast Overcast  
Wind Chill: 15°   Ceiling: 300
Heat Index: 25°   Visibility: 6mi
Dew Point: 23°   Wind: 9mph
Humidity: 93%   Direction: 210°SSW
Pressure: 30.12"   Gusts: NA
Location:  59.6°N, 65.93°E
Report Text: USHH 180400Z 21004MPS 9000 BKN003CB OVC080 M04/M05 Q1020 TEMPO1000 SHSN BKN003 RMK QBB110 QFE761 24////35
Loading
Personal Weather Stations






























Interactive Weather Map New forecast layout! Learn more

10-Day Weather Forecast

Advertisements
Track Severe Weather on mobile